Time;durP1;ratioP1;P1;durP2;ratioP2;P2;SDS_P1;SDS_P2;PMS_P1;PMS_P2;Temp;Humidity;BMP_temperature;BMP_pressure;BME280_temperature;BME280_humidity;BME280_pressure;Samples;Min_cycle;Max_cycle;Signal;HPM_P1;HPM_P2
2023/03/10 00:00:38;;;;;;;0.35;0.10;;;12.10;99.90;;;;;;4989550;28;20031;-70
2023/03/10 00:03:04;;;;;;;0.65;0.30;;;12.10;99.90;;;;;;4991016;28;20026;-70
2023/03/10 00:05:30;;;;;;;0.47;0.40;;;12.00;99.90;;;;;;4990339;28;20038;-70
2023/03/10 00:07:56;;;;;;;2.50;0.57;;;12.00;99.90;;;;;;4990842;28;20376;-70
2023/03/10 00:10:22;;;;;;;0.60;0.38;;;12.00;99.90;;;;;;4990097;28;20034;-70
2023/03/10 00:12:47;;;;;;;3.55;0.63;;;12.00;99.90;;;;;;4990213;28;20027;-70
2023/03/10 00:15:13;;;;;;;1.00;0.22;;;11.90;99.90;;;;;;4990338;28;20039;-69
2023/03/10 00:17:40;;;;;;;2.03;0.30;;;11.90;99.90;;;;;;4990760;28;20072;-70
2023/03/10 00:20:10;;;;;;;0.22;0.10;;;11.90;99.90;;;;;;4986129;28;20030;-70
2023/03/10 00:22:37;;;;;;;2.28;0.30;;;12.00;99.90;;;;;;4991301;28;20022;-71
2023/03/10 00:25:05;;;;;;;0.60;0.20;;;11.90;99.90;;;;;;4992121;28;20049;-71
2023/03/10 00:27:31;;;;;;;0.15;0.10;;;11.90;99.90;;;;;;4993857;28;20018;-71
2023/03/10 00:29:57;;;;;;;0.93;0.80;;;11.90;99.90;;;;;;4989977;28;20031;-71
2023/03/10 00:32:22;;;;;;;1.83;0.30;;;11.80;99.90;;;;;;4994116;28;20026;-71
2023/03/10 00:34:48;;;;;;;0.60;0.25;;;11.80;99.90;;;;;;4993833;28;20052;-71
2023/03/10 00:37:14;;;;;;;0.30;0.20;;;11.70;99.90;;;;;;4993929;28;20022;-71
2023/03/10 00:39:40;;;;;;;2.03;0.47;;;11.70;99.90;;;;;;4993520;28;20391;-71
2023/03/10 00:42:06;;;;;;;0.55;0.17;;;11.80;99.90;;;;;;4993685;28;20038;-71
2023/03/10 00:44:32;;;;;;;0.25;0.17;;;11.80;99.90;;;;;;4993576;28;20026;-70
2023/03/10 00:46:58;;;;;;;1.08;0.70;;;11.80;99.90;;;;;;4993181;28;20030;-70
2023/03/10 00:49:23;;;;;;;0.13;0.13;;;11.70;99.90;;;;;;4993493;28;20046;-70
2023/03/10 00:51:49;;;;;;;0.85;0.40;;;11.60;99.90;;;;;;4990576;28;20058;-70
2023/03/10 00:54:15;;;;;;;0.65;0.52;;;11.50;99.90;;;;;;4991543;28;20045;-71
2023/03/10 00:56:41;;;;;;;1.02;0.30;;;11.40;99.90;;;;;;4993495;28;20034;-71
2023/03/10 00:59:06;;;;;;;2.42;0.40;;;11.40;99.90;;;;;;4993675;28;20026;-71
2023/03/10 01:01:36;;;;;;;0.10;0.10;;;11.30;99.90;;;;;;4990724;28;20038;-70
2023/03/10 01:04:18;;;;;;;1.17;0.47;;;11.20;99.90;;;;;;5006535;28;20487;-70
2023/03/10 01:06:46;;;;;;;0.60;0.32;;;11.20;99.90;;;;;;4993085;28;20038;-71
2023/03/10 01:09:12;;;;;;;1.80;0.30;;;11.20;99.90;;;;;;5007573;28;20030;-70
2023/03/10 01:11:38;;;;;;;0.80;0.45;;;11.20;99.90;;;;;;4993061;28;20113;-71
2023/03/10 01:14:07;;;;;;;2.63;0.90;;;11.20;99.90;;;;;;4993329;28;20112;-71
2023/03/10 01:16:33;;;;;;;0.73;0.30;;;11.20;99.90;;;;;;4995336;28;20379;-70
2023/03/10 01:18:59;;;;;;;1.55;0.57;;;11.10;99.90;;;;;;4993149;28;20030;-71
2023/03/10 01:21:30;;;;;;;0.68;0.43;;;11.10;99.90;;;;;;4990266;28;20041;-71
2023/03/10 01:23:56;;;;;;;0.22;0.20;;;11.10;99.90;;;;;;4993112;28;20104;-71
2023/03/10 01:26:22;;;;;;;0.55;0.38;;;11.10;99.90;;;;;;4990357;28;20115;-71
2023/03/10 01:28:48;;;;;;;0.43;0.20;;;11.10;99.90;;;;;;5004158;28;20030;-71
2023/03/10 01:31:14;;;;;;;1.13;0.30;;;11.10;99.90;;;;;;5001775;28;20026;-71
2023/03/10 01:33:41;;;;;;;0.38;0.25;;;11.00;99.90;;;;;;4993150;28;20026;-70
2023/03/10 01:36:14;;;;;;;2.13;0.50;;;11.00;99.90;;;;;;4991848;28;20496;-70
2023/03/10 01:38:41;;;;;;;0.68;0.50;;;11.00;99.90;;;;;;5002828;28;20465;-71
2023/03/10 01:41:08;;;;;;;0.70;0.47;;;11.10;99.90;;;;;;4992418;28;20033;-71
2023/03/10 01:43:42;;;;;;;0.38;0.30;;;11.10;99.90;;;;;;4993216;28;20867;-71
2023/03/10 01:46:50;;;;;;;0.00;0.00;;;11.10;99.90;;;;;;4995710;28;20033;-71
2023/03/10 01:49:35;;;;;;;0.13;0.10;;;11.00;99.90;;;;;;4992616;28;20034;-71
2023/03/10 01:52:13;;;;;;;0.35;0.30;;;11.00;99.90;;;;;;4992159;23;20150;-75
2023/03/10 01:55:06;;;;;;;0.55;0.10;;;11.10;99.90;;;;;;4972036;28;20035;-74
2023/03/10 01:57:56;;;;;;;0.20;0.10;;;11.00;99.90;;;;;;4958635;28;20027;-72
2023/03/10 02:00:25;;;;;;;0.10;0.10;;;11.00;99.90;;;;;;4965658;28;20034;-73
2023/03/10 02:02:56;;;;;;;0.55;0.30;;;10.90;99.90;;;;;;4988538;28;20026;-73
2023/03/10 02:05:23;;;;;;;0.00;0.00;;;10.90;99.90;;;;;;4976807;28;20045;-72
2023/03/10 02:07:49;;;;;;;0.77;0.25;;;10.90;99.90;;;;;;4981711;28;20619;-73
2023/03/10 02:10:16;;;;;;;0.60;0.32;;;10.80;99.90;;;;;;4991731;28;20046;-73
2023/03/10 02:12:45;;;;;;;0.95;0.10;;;10.80;99.90;;;;;;4984202;28;20065;-72
2023/03/10 02:15:11;;;;;;;1.75;0.20;;;10.80;99.90;;;;;;4992090;28;20026;-73
2023/03/10 02:17:39;;;;;;;0.65;0.30;;;10.70;99.90;;;;;;4990446;28;20026;-73
2023/03/10 02:20:29;;;;;;;2.42;0.20;;;10.70;99.90;;;;;;4974129;28;20036;-73
2023/03/10 02:22:55;;;;;;;0.10;0.10;;;10.70;99.90;;;;;;4991507;28;20049;-73
2023/03/10 02:25:33;;;;;;;1.15;0.15;;;10.70;99.90;;;;;;4962708;28;20042;-73
2023/03/10 02:27:59;;;;;;;0.57;0.20;;;10.60;99.90;;;;;;4981689;28;20046;-73
2023/03/10 02:30:33;;;;;;;3.13;0.15;;;10.60;99.90;;;;;;4990705;28;20092;-73
2023/03/10 02:33:20;;;;;;;0.40;0.30;;;10.60;99.90;;;;;;4989608;28;20030;-73
2023/03/10 02:35:46;;;;;;;0.20;0.20;;;10.60;99.90;;;;;;4990297;28;20030;-74
2023/03/10 02:38:12;;;;;;;0.82;0.40;;;10.60;99.90;;;;;;4989798;28;20038;-74
2023/03/10 02:40:51;;;;;;;0.20;0.10;;;10.60;99.90;;;;;;4990379;28;20042;-74
2023/03/10 02:43:30;;;;;;;1.40;0.30;;;10.60;99.90;;;;;;4990933;28;20490;-73
2023/03/10 02:46:04;;;;;;;0.30;0.10;;;10.60;99.90;;;;;;4990922;28;20042;-73
2023/03/10 02:48:35;;;;;;;0.00;0.00;;;10.60;99.90;;;;;;4988535;28;20033;-74
2023/03/10 02:51:06;;;;;;;0.70;0.40;;;10.60;99.90;;;;;;4989691;28;20052;-72
2023/03/10 02:53:32;;;;;;;0.22;0.20;;;10.60;99.90;;;;;;4984329;28;20575;-74
2023/03/10 02:55:58;;;;;;;0.30;0.20;;;10.60;99.90;;;;;;4991387;28;20026;-74
2023/03/10 02:58:27;;;;;;;0.82;0.28;;;10.60;99.90;;;;;;4989799;28;20425;-74
2023/03/10 03:00:54;;;;;;;0.10;0.10;;;10.60;99.90;;;;;;4991321;28;20498;-73
2023/03/10 03:03:20;;;;;;;0.30;0.22;;;10.60;99.90;;;;;;4990853;28;20027;-74
2023/03/10 03:05:48;;;;;;;10.85;0.38;;;10.60;99.90;;;;;;4990288;28;20040;-74
2023/03/10 03:08:15;;;;;;;0.35;0.25;;;10.50;99.90;;;;;;4983165;28;20110;-73
2023/03/10 03:10:41;;;;;;;1.02;0.38;;;10.50;99.90;;;;;;4991007;28;20542;-74
2023/03/10 03:13:07;;;;;;;0.77;0.60;;;10.50;99.90;;;;;;4989506;28;20145;-74
2023/03/10 03:15:34;;;;;;;1.02;0.22;;;10.50;99.90;;;;;;4991394;28;20034;-74
2023/03/10 03:18:00;;;;;;;0.82;0.50;;;10.40;99.90;;;;;;4990680;28;20030;-74
2023/03/10 03:20:28;;;;;;;0.82;0.40;;;10.40;99.90;;;;;;4989699;28;20030;-74
2023/03/10 03:22:55;;;;;;;0.40;0.30;;;10.40;99.90;;;;;;4990584;28;20113;-74
2023/03/10 03:25:22;;;;;;;0.30;0.10;;;10.40;99.90;;;;;;4990211;28;20392;-74
2023/03/10 03:27:50;;;;;;;0.75;0.28;;;10.40;99.90;;;;;;4989533;28;20118;-73
2023/03/10 03:30:22;;;;;;;1.15;0.22;;;10.40;99.90;;;;;;4988170;28;20037;-74
2023/03/10 03:32:48;;;;;;;0.40;0.30;;;10.50;99.90;;;;;;4978505;28;20042;-74
2023/03/10 03:35:23;;;;;;;0.20;0.13;;;10.50;99.90;;;;;;4989945;28;20391;-73
2023/03/10 03:37:50;;;;;;;3.42;0.63;;;10.40;99.90;;;;;;4990472;28;20030;-73
2023/03/10 03:40:16;;;;;;;0.90;0.50;;;10.40;99.90;;;;;;4989638;28;20394;-74
2023/03/10 03:42:45;;;;;;;6.85;0.75;;;10.40;99.90;;;;;;4984265;28;20498;-73
2023/03/10 03:45:13;;;;;;;5.25;0.45;;;10.40;99.90;;;;;;4990802;28;20026;-73
2023/03/10 03:47:39;;;;;;;0.17;0.17;;;10.30;99.90;;;;;;4990721;28;20034;-73
2023/03/10 03:50:07;;;;;;;1.63;0.50;;;10.20;99.90;;;;;;4990581;28;20426;-73
2023/03/10 03:52:33;;;;;;;0.80;0.38;;;10.30;99.90;;;;;;4990287;28;20435;-75
2023/03/10 03:54:59;;;;;;;0.47;0.25;;;10.30;99.90;;;;;;4989629;28;20606;-73
2023/03/10 03:57:25;;;;;;;1.05;0.50;;;10.30;99.90;;;;;;4984515;28;20031;-73
2023/03/10 03:59:52;;;;;;;0.88;0.25;;;10.30;99.90;;;;;;4992138;28;20631;-73
2023/03/10 04:02:18;;;;;;;1.55;0.60;;;10.30;99.90;;;;;;4988067;28;20386;-73
2023/03/10 04:04:44;;;;;;;2.97;0.60;;;10.30;99.90;;;;;;4994488;28;20022;-73
2023/03/10 04:07:09;;;;;;;2.80;0.40;;;10.30;99.90;;;;;;4993851;28;20117;-74
2023/03/10 04:09:39;;;;;;;3.10;1.27;;;10.30;99.90;;;;;;4994210;28;20450;-74
2023/03/10 04:12:06;;;;;;;1.55;0.57;;;10.30;99.90;;;;;;4987860;28;20062;-74
2023/03/10 04:14:32;;;;;;;1.02;0.75;;;10.20;99.90;;;;;;5009413;28;20395;-75
2023/03/10 04:16:57;;;;;;;0.98;0.60;;;10.20;99.90;;;;;;4982471;28;20084;-74
2023/03/10 04:19:23;;;;;;;0.55;0.20;;;10.10;99.90;;;;;;4993508;28;20038;-73
2023/03/10 04:21:49;;;;;;;0.47;0.20;;;10.10;99.90;;;;;;4993492;28;20084;-74
2023/03/10 04:24:15;;;;;;;1.50;0.65;;;10.00;99.90;;;;;;4994117;28;20116;-74
2023/03/10 04:26:41;;;;;;;0.70;0.45;;;9.90;99.90;;;;;;4993794;28;20498;-73
2023/03/10 04:29:06;;;;;;;0.60;0.30;;;9.90;99.90;;;;;;4993829;28;20038;-74
2023/03/10 04:31:32;;;;;;;1.25;0.57;;;9.80;99.90;;;;;;4992979;28;20057;-73
2023/03/10 04:33:58;;;;;;;0.65;0.35;;;9.80;99.90;;;;;;4994519;28;20439;-74
2023/03/10 04:36:24;;;;;;;2.95;0.80;;;9.80;99.90;;;;;;4985632;28;20047;-74
2023/03/10 04:38:49;;;;;;;7.85;0.77;;;9.80;99.90;;;;;;5006073;28;20041;-75
2023/03/10 04:41:16;;;;;;;0.38;0.30;;;9.80;99.90;;;;;;4993210;28;20092;-74
2023/03/10 04:43:42;;;;;;;4.65;0.52;;;9.80;99.90;;;;;;4990803;28;20034;-73
2023/03/10 04:46:08;;;;;;;1.10;0.50;;;9.70;99.90;;;;;;4991657;28;20027;-73
2023/03/10 04:48:34;;;;;;;1.30;0.30;;;9.70;99.90;;;;;;4991135;28;20035;-73
2023/03/10 04:51:04;;;;;;;0.55;0.30;;;9.60;99.90;;;;;;4976991;28;20044;-73
2023/03/10 04:53:34;;;;;;;4.90;0.55;;;9.60;99.90;;;;;;4987342;28;20038;-73
2023/03/10 04:56:03;;;;;;;1.38;0.65;;;9.60;99.90;;;;;;4985538;28;20061;-74
2023/03/10 04:58:29;;;;;;;5.13;0.70;;;9.60;99.90;;;;;;4978907;28;20045;-72
2023/03/10 05:00:55;;;;;;;1.05;0.45;;;9.60;99.90;;;;;;4987771;28;20027;-75
2023/03/10 05:03:21;;;;;;;1.38;0.20;;;9.60;99.90;;;;;;4972064;28;20034;-72
2023/03/10 05:05:46;;;;;;;4.57;0.75;;;9.70;99.90;;;;;;4989230;28;20030;-74
2023/03/10 05:08:12;;;;;;;0.98;0.38;;;9.70;99.90;;;;;;4990168;28;20022;-74
2023/03/10 05:10:43;;;;;;;0.45;0.32;;;9.80;99.90;;;;;;4988505;28;20026;-73
2023/03/10 05:13:11;;;;;;;;;;;9.80;99.90;;;;;;4990638;28;20038;-73
2023/03/10 05:15:41;;;;;;;2.30;0.60;;;9.80;99.90;;;;;;4991974;28;19914;-73
2023/03/10 05:18:09;;;;;;;1.10;0.90;;;9.90;99.90;;;;;;4986356;28;20045;-73
2023/03/10 05:20:36;;;;;;;1.00;0.50;;;9.90;99.90;;;;;;4988129;28;20038;-74
2023/03/10 05:23:02;;;;;;;2.97;1.55;;;9.90;99.90;;;;;;4984160;28;20041;-73
2023/03/10 05:25:28;;;;;;;3.50;1.05;;;9.90;99.90;;;;;;4989120;28;20414;-74
2023/03/10 05:27:54;;;;;;;2.30;0.70;;;9.90;99.90;;;;;;4986308;28;20030;-73
2023/03/10 05:30:21;;;;;;;0.77;0.60;;;9.90;99.90;;;;;;4992715;28;20033;-74
2023/03/10 05:32:47;;;;;;;0.88;0.65;;;10.00;99.90;;;;;;4990392;28;20084;-74
2023/03/10 05:35:13;;;;;;;1.75;0.43;;;10.00;99.90;;;;;;4992064;28;20030;-75
2023/03/10 05:37:42;;;;;;;0.82;0.52;;;10.00;99.90;;;;;;4983230;28;20482;-74
2023/03/10 05:40:13;;;;;;;2.00;0.50;;;10.10;99.90;;;;;;4981844;28;20531;-74
2023/03/10 05:42:39;;;;;;;1.17;0.30;;;10.00;99.90;;;;;;4987527;28;20494;-74
2023/03/10 05:45:07;;;;;;;1.42;1.30;;;10.00;99.90;;;;;;4991043;28;20089;-74
2023/03/10 05:47:33;;;;;;;2.80;0.98;;;10.00;99.90;;;;;;4991111;28;20101;-74
2023/03/10 05:50:00;;;;;;;0.60;0.32;;;10.00;99.90;;;;;;4991244;28;20398;-70
2023/03/10 05:52:27;;;;;;;3.15;0.63;;;10.00;99.90;;;;;;4990445;28;20053;-74
2023/03/10 05:54:53;;;;;;;2.50;0.70;;;10.00;99.90;;;;;;4978135;28;20023;-68
2023/03/10 05:57:19;;;;;;;0.52;0.40;;;10.00;99.90;;;;;;4988865;28;20062;-69
2023/03/10 05:59:44;;;;;;;1.65;0.68;;;10.00;99.90;;;;;;4990785;28;20066;-68
2023/03/10 06:02:10;;;;;;;1.70;0.60;;;10.00;99.90;;;;;;4990072;28;20499;-67
2023/03/10 06:04:36;;;;;;;6.25;0.88;;;9.90;99.90;;;;;;4981601;28;20034;-69
2023/03/10 06:07:02;;;;;;;7.85;1.02;;;9.90;99.90;;;;;;4977580;28;20409;-68
2023/03/10 06:09:31;;;;;;;1.83;0.70;;;9.90;99.90;;;;;;4986823;28;20129;-68
2023/03/10 06:11:58;;;;;;;7.32;0.68;;;9.80;99.90;;;;;;4973831;28;20494;-70
2023/03/10 06:14:24;;;;;;;4.45;0.30;;;9.80;99.90;;;;;;4985278;28;20121;-69
2023/03/10 06:16:53;;;;;;;2.60;0.70;;;9.80;99.90;;;;;;4983230;28;20034;-69
2023/03/10 06:19:21;;;;;;;5.32;0.77;;;9.90;99.90;;;;;;4985040;28;20033;-70
2023/03/10 06:21:47;;;;;;;3.70;0.57;;;10.00;99.90;;;;;;4991367;28;20393;-68
2023/03/10 06:24:13;;;;;;;1.20;0.70;;;9.90;99.90;;;;;;4986265;28;20038;-69
2023/03/10 06:26:39;;;;;;;0.47;0.40;;;9.90;99.90;;;;;;4981288;28;20116;-69
2023/03/10 06:29:06;;;;;;;3.90;0.57;;;9.90;99.90;;;;;;4991310;28;20037;-69
2023/03/10 06:31:32;;;;;;;3.63;1.05;;;10.00;99.90;;;;;;4986170;28;20521;-70
2023/03/10 06:33:58;;;;;;;0.85;0.70;;;10.10;99.90;;;;;;4978659;28;20034;-69
2023/03/10 06:36:25;;;;;;;6.25;0.98;;;10.00;99.90;;;;;;4974217;28;20646;-71
2023/03/10 06:38:53;;;;;;;3.10;0.57;;;10.00;99.90;;;;;;4987882;28;20398;-71
2023/03/10 06:41:19;;;;;;;1.60;0.63;;;10.00;99.90;;;;;;4982224;28;20030;-70
2023/03/10 06:43:46;;;;;;;1.45;1.15;;;10.00;99.90;;;;;;4989173;28;20117;-70
2023/03/10 06:46:12;;;;;;;2.05;0.70;;;10.10;99.90;;;;;;4991403;28;20034;-70
2023/03/10 06:48:40;;;;;;;6.20;1.00;;;10.10;99.90;;;;;;4989840;28;20038;-71
2023/03/10 06:51:16;;;;;;;7.10;1.40;;;10.20;99.90;;;;;;5000177;28;20022;-70
2023/03/10 06:53:42;;;;;;;1.55;0.55;;;10.30;99.90;;;;;;4988950;28;20030;-71
2023/03/10 06:56:13;;;;;;;1.83;0.63;;;10.30;99.90;;;;;;4975988;28;20058;-71
2023/03/10 06:58:40;;;;;;;1.65;0.73;;;10.40;99.90;;;;;;4980022;28;20113;-71
2023/03/10 07:01:08;;;;;;;1.00;0.85;;;10.50;99.90;;;;;;4990546;28;20030;-71
2023/03/10 07:03:35;;;;;;;0.60;0.32;;;10.60;99.90;;;;;;4990359;28;20026;-70
2023/03/10 07:06:01;;;;;;;4.63;0.85;;;10.60;99.90;;;;;;4991171;28;20026;-70
2023/03/10 07:08:28;;;;;;;2.15;0.60;;;10.60;99.90;;;;;;4988689;28;20069;-70
2023/03/10 07:10:55;;;;;;;1.75;0.60;;;10.50;99.90;;;;;;4990976;28;20037;-70
2023/03/10 07:13:21;;;;;;;1.48;0.40;;;10.60;99.90;;;;;;4989437;28;20065;-70
2023/03/10 07:15:47;;;;;;;3.00;1.02;;;10.70;99.90;;;;;;4991059;28;20470;-70
2023/03/10 07:18:14;;;;;;;1.75;0.75;;;10.70;99.90;;;;;;4990281;28;20038;-70
2023/03/10 07:20:46;;;;;;;5.20;1.23;;;10.80;99.90;;;;;;4989405;28;20553;-70
2023/03/10 07:23:12;;;;;;;4.43;1.00;;;10.70;99.90;;;;;;4988785;28;20042;-70
2023/03/10 07:25:39;;;;;;;3.20;0.30;;;10.80;99.90;;;;;;4990977;28;20033;-70
2023/03/10 07:28:05;;;;;;;0.73;0.47;;;10.90;99.90;;;;;;4987619;28;20081;-71
2023/03/10 07:30:32;;;;;;;1.90;0.43;;;11.00;99.90;;;;;;4990638;28;20029;-70
2023/03/10 07:32:58;;;;;;;1.75;0.28;;;11.10;99.90;;;;;;4985546;28;20026;-69
2023/03/10 07:35:24;;;;;;;3.30;0.63;;;11.20;99.90;;;;;;4991794;28;20517;-70
2023/03/10 07:37:50;;;;;;;1.02;0.40;;;11.10;99.90;;;;;;4992449;28;20030;-70
2023/03/10 07:40:16;;;;;;;5.10;1.13;;;11.10;99.90;;;;;;4988721;28;20038;-70
2023/03/10 07:42:42;;;;;;;3.50;0.63;;;11.00;99.90;;;;;;4986692;28;20121;-70
2023/03/10 07:45:09;;;;;;;2.22;0.70;;;11.10;99.90;;;;;;4988202;28;20046;-70
2023/03/10 07:47:34;;;;;;;1.45;1.00;;;10.90;99.90;;;;;;4990329;28;20433;-70
2023/03/10 07:50:00;;;;;;;5.38;1.02;;;10.90;99.90;;;;;;4988885;28;20039;-69
2023/03/10 07:52:28;;;;;;;1.98;0.60;;;10.90;99.90;;;;;;5002855;23;20062;-70
2023/03/10 07:54:54;;;;;;;1.77;0.17;;;10.90;99.90;;;;;;4993967;28;20058;-70
2023/03/10 07:57:20;;;;;;;0.30;0.30;;;10.90;99.90;;;;;;4993043;28;20026;-71
2023/03/10 07:59:46;;;;;;;0.32;0.13;;;10.90;99.90;;;;;;4994449;28;20034;-74
2023/03/10 08:02:14;;;;;;;8.07;0.90;;;10.80;99.90;;;;;;4994074;28;20042;-72
2023/03/10 08:04:40;;;;;;;2.85;0.52;;;10.70;99.90;;;;;;4990729;28;20030;-71
2023/03/10 08:07:07;;;;;;;3.97;0.93;;;10.70;99.90;;;;;;4993607;28;20038;-72
2023/03/10 08:09:32;;;;;;;1.40;0.50;;;10.60;99.90;;;;;;4995945;28;20035;-71
2023/03/10 08:12:00;;;;;;;0.93;0.25;;;10.60;99.90;;;;;;4993730;28;20426;-72
2023/03/10 08:14:28;;;;;;;0.57;0.20;;;10.50;99.90;;;;;;5000588;28;20057;-70
2023/03/10 08:16:57;;;;;;;0.55;0.22;;;10.30;99.90;;;;;;5002113;28;20031;-69
2023/03/10 08:19:26;;;;;;;0.40;0.17;;;10.00;99.90;;;;;;5000316;28;20049;-71
2023/03/10 08:22:00;;;;;;;1.67;0.52;;;9.80;99.90;;;;;;4987424;28;20031;-68
2023/03/10 08:24:27;;;;;;;1.52;0.40;;;9.70;99.90;;;;;;4986083;28;20025;-70
2023/03/10 08:26:53;;;;;;;0.30;0.22;;;9.70;99.90;;;;;;4989411;28;20097;-69
2023/03/10 08:29:20;;;;;;;4.13;0.50;;;9.60;99.90;;;;;;4992990;28;20479;-69
2023/03/10 08:31:46;;;;;;;12.95;2.47;;;9.60;99.90;;;;;;4983856;28;20030;-70
2023/03/10 08:34:14;;;;;;;1.17;0.63;;;9.60;99.90;;;;;;4993187;28;20030;-71
2023/03/10 08:36:40;;;;;;;0.52;0.30;;;9.70;99.90;;;;;;4989502;28;20027;-71
2023/03/10 08:39:07;;;;;;;4.82;0.70;;;9.70;99.90;;;;;;4992307;28;20018;-71
2023/03/10 08:41:44;;;;;;;1.48;0.63;;;9.70;99.90;;;;;;4993173;28;20049;-71
2023/03/10 08:44:14;;;;;;;8.70;0.93;;;9.80;99.90;;;;;;4993682;28;20062;-71
2023/03/10 08:46:42;;;;;;;8.10;0.60;;;9.90;99.90;;;;;;4997337;28;20110;-71
2023/03/10 08:49:08;;;;;;;1.88;1.02;;;10.00;99.90;;;;;;4990806;28;20042;-71
2023/03/10 08:51:34;;;;;;;0.75;0.10;;;10.00;99.90;;;;;;4991514;28;20154;-71
2023/03/10 08:54:01;;;;;;;11.18;0.45;;;10.00;99.90;;;;;;4992223;28;20029;-71
2023/03/10 08:56:28;;;;;;;1.80;0.63;;;10.00;99.90;;;;;;4990995;28;20036;-72
2023/03/10 08:58:56;;;;;;;0.80;0.30;;;10.10;99.90;;;;;;4988973;28;20649;-71
2023/03/10 09:01:22;;;;;;;3.92;0.52;;;10.20;99.90;;;;;;4991456;28;20030;-71
2023/03/10 09:03:48;;;;;;;0.20;0.20;;;10.10;99.90;;;;;;4992111;28;20044;-72
2023/03/10 09:06:14;;;;;;;0.20;0.10;;;10.20;99.90;;;;;;4992186;28;20109;-72
2023/03/10 09:08:40;;;;;;;1.95;0.57;;;10.20;99.90;;;;;;4991497;28;20121;-72
2023/03/10 09:11:08;;;;;;;0.52;0.30;;;10.20;99.90;;;;;;5005748;28;20030;-72
2023/03/10 09:13:34;;;;;;;4.38;0.90;;;10.30;99.90;;;;;;5001996;28;20034;-72
2023/03/10 09:15:59;;;;;;;0.35;0.20;;;10.30;99.90;;;;;;4991978;28;20033;-71
2023/03/10 09:18:25;;;;;;;4.47;0.85;;;10.40;99.90;;;;;;4990633;28;20446;-72
2023/03/10 09:20:51;;;;;;;5.20;0.43;;;10.60;99.90;;;;;;4991463;28;20465;-71
2023/03/10 09:23:17;;;;;;;1.75;0.45;;;10.70;99.90;;;;;;4988472;28;20049;-71
2023/03/10 09:25:43;;;;;;;2.53;1.08;;;10.70;99.90;;;;;;5007007;28;20034;-71
2023/03/10 09:28:10;;;;;;;5.32;0.32;;;10.80;99.90;;;;;;4991347;28;20384;-71
2023/03/10 09:30:40;;;;;;;0.47;0.22;;;10.80;99.90;;;;;;5001278;28;20077;-71
2023/03/10 09:33:12;;;;;;;0.05;0.05;;;11.00;99.90;;;;;;4996385;28;20121;-73
2023/03/10 09:35:38;;;;;;;1.75;1.08;;;11.10;99.90;;;;;;5001075;28;20037;-71
2023/03/10 09:38:04;;;;;;;2.10;0.47;;;11.40;99.90;;;;;;4991392;28;20109;-71
2023/03/10 09:40:31;;;;;;;5.43;0.93;;;11.50;99.90;;;;;;4991551;28;20109;-71
2023/03/10 09:43:02;;;;;;;0.32;0.20;;;11.40;99.90;;;;;;4990900;28;20077;-71
2023/03/10 09:46:10;;;;;;;1.10;0.13;;;11.30;99.90;;;;;;4999398;28;20113;-71
2023/03/10 09:49:23;;;;;;;0.82;0.40;;;11.10;99.90;;;;;;4990948;28;20410;-71
2023/03/10 09:51:50;;;;;;;1.80;0.20;;;11.10;99.90;;;;;;4936360;28;1105303;-74
2023/03/10 09:54:49;;;;;;;0.52;0.30;;;11.00;99.90;;;;;;4991003;28;20102;-72
2023/03/10 09:57:21;;;;;;;1.23;0.47;;;11.00;99.90;;;;;;4986003;28;20072;-70
2023/03/10 09:59:50;;;;;;;1.38;0.30;;;11.10;99.90;;;;;;4998847;28;20547;-72
2023/03/10 10:02:36;;;;;;;3.92;0.45;;;11.20;99.90;;;;;;4985542;28;20149;-75
2023/03/10 10:05:12;;;;;;;1.90;0.40;;;11.10;99.90;;;;;;4999494;28;20022;-75
2023/03/10 10:07:54;;;;;;;4.72;0.63;;;11.20;99.90;;;;;;4989638;28;20038;-74
2023/03/10 10:10:27;;;;;;;1.73;0.40;;;11.20;99.90;;;;;;4983753;28;20057;-73
2023/03/10 10:12:54;;;;;;;1.77;0.60;;;11.20;99.90;;;;;;4996632;28;20018;-71
2023/03/10 10:15:25;;;;;;;4.70;0.60;;;11.20;99.90;;;;;;4999012;28;20026;-72
2023/03/10 10:17:54;;;;;;;1.50;0.63;;;11.10;99.90;;;;;;4991769;28;20053;-72
2023/03/10 10:20:35;;;;;;;0.52;0.38;;;11.10;99.90;;;;;;4984019;28;20065;-73
2023/03/10 10:23:01;;;;;;;;;;;11.10;99.90;;;;;;4987631;28;20038;-73
2023/03/10 10:25:31;;;;;;;2.30;0.50;;;11.20;99.90;;;;;;4990644;28;20401;-70
2023/03/10 10:28:00;;;;;;;6.10;1.40;;;11.10;99.90;;;;;;4987037;28;20038;-73
2023/03/10 10:30:37;;;;;;;16.35;0.75;;;11.00;99.90;;;;;;4983237;28;20022;-73
2023/03/10 10:33:06;;;;;;;1.17;0.45;;;11.00;99.90;;;;;;4993459;28;20387;-74
2023/03/10 10:35:36;;;;;;;2.40;0.40;;;11.00;99.90;;;;;;5000611;28;20034;-73
2023/03/10 10:38:09;;;;;;;0.90;0.70;;;11.00;99.90;;;;;;4991006;28;20092;-73
2023/03/10 10:41:03;;;;;;;1.25;0.45;;;10.90;99.90;;;;;;4991481;28;20042;-73
2023/03/10 10:43:30;;;;;;;1.48;0.32;;;10.90;99.90;;;;;;4983337;28;20034;-72
2023/03/10 10:46:04;;;;;;;2.35;0.47;;;10.80;99.90;;;;;;4992508;28;20105;-72
2023/03/10 10:48:50;;;;;;;5.57;0.90;;;10.80;99.90;;;;;;4992657;28;20061;-72
2023/03/10 10:51:28;;;;;;;1.73;0.65;;;10.80;99.90;;;;;;4990602;28;20033;-74
2023/03/10 10:54:27;;;;;;;1.88;0.57;;;10.80;99.90;;;;;;4986691;28;20035;-74
2023/03/10 10:56:59;;;;;;;1.55;0.60;;;10.80;99.90;;;;;;4984641;28;20047;-73
2023/03/10 10:59:31;;;;;;;1.65;0.50;;;10.80;99.90;;;;;;4997779;28;20117;-75
2023/03/10 11:02:19;;;;;;;3.92;1.23;;;10.90;99.90;;;;;;4986363;28;20049;-75
2023/03/10 11:04:46;;;;;;;4.28;0.55;;;10.90;99.90;;;;;;4991119;28;20022;-77
2023/03/10 11:07:26;;;;;;;0.85;0.45;;;11.00;99.90;;;;;;4990400;28;20034;-74
2023/03/10 11:09:55;;;;;;;16.42;1.05;;;11.00;99.90;;;;;;4990208;28;20054;-78
2023/03/10 11:12:38;;;;;;;0.85;0.47;;;11.00;99.90;;;;;;4990636;28;20034;-75
2023/03/10 11:15:10;;;;;;;14.80;0.82;;;10.90;99.90;;;;;;5002086;28;20030;-71
2023/03/10 11:18:05;;;;;;;0.10;0.10;;;10.90;99.90;;;;;;4990484;28;20057;-73
2023/03/10 11:20:33;;;;;;;0.80;0.40;;;11.00;99.90;;;;;;4992431;28;20054;-75
2023/03/10 11:23:05;;;;;;;3.20;0.40;;;11.10;99.90;;;;;;4982269;28;20097;-72
2023/03/10 11:26:09;;;;;;;1.08;0.50;;;11.20;99.90;;;;;;4990853;28;20050;-75
2023/03/10 11:29:23;;;;;;;4.60;1.10;;;11.10;99.90;;;;;;4992401;28;20069;-71
2023/03/10 11:32:17;;;;;;;0.88;0.28;;;11.10;99.90;;;;;;4974388;28;20058;-69
2023/03/10 11:34:52;;;;;;;0.40;0.13;;;11.10;99.90;;;;;;4986188;28;20045;-72
2023/03/10 11:37:45;;;;;;;0.70;0.25;;;11.10;99.90;;;;;;4968649;28;20066;-75
2023/03/10 11:40:27;;;;;;;2.30;0.52;;;11.00;99.90;;;;;;4986049;28;20042;-76
2023/03/10 11:43:15;;;;;;;;;;;10.90;99.90;;;;;;4985511;28;20065;-75
2023/03/10 11:45:53;;;;;;;0.38;0.10;;;10.90;99.90;;;;;;4991138;28;19910;-76
2023/03/10 11:49:08;;;;;;;0.77;0.30;;;10.90;99.90;;;;;;4990197;28;20034;-74
2023/03/10 11:51:42;;;;;;;0.20;0.10;;;10.80;99.90;;;;;;4984255;28;20149;-75
2023/03/10 11:54:44;;;;;;;0.95;0.22;;;10.80;99.90;;;;;;4979092;28;20031;-76
2023/03/10 11:57:17;;;;;;;;;;;10.70;99.90;;;;;;4977987;28;20050;-70
2023/03/10 11:59:56;;;;;;;0.75;0.20;;;10.60;99.90;;;;;;4990201;28;19917;-69
2023/03/10 12:02:32;;;;;;;0.43;0.17;;;10.60;99.90;;;;;;4980236;28;20038;-76
2023/03/10 12:05:15;;;;;;;0.38;0.15;;;10.50;99.90;;;;;;4989983;28;20034;-75
2023/03/10 12:07:49;;;;;;;0.03;0.03;;;10.40;99.90;;;;;;4985777;28;20034;-76
2023/03/10 12:10:20;;;;;;;0.10;0.10;;;10.40;99.90;;;;;;4985651;28;20108;-80
2023/03/10 12:12:49;;;;;;;0.10;0.10;;;10.40;99.90;;;;;;4986083;28;20034;-75
2023/03/10 12:15:35;;;;;;;2.67;0.65;;;10.30;99.90;;;;;;4984832;28;20035;-74
2023/03/10 12:18:04;;;;;;;0.10;0.03;;;10.20;99.90;;;;;;4982559;28;20082;-74
2023/03/10 12:20:32;;;;;;;3.00;0.30;;;10.20;99.90;;;;;;4982815;28;20113;-75
2023/03/10 12:23:23;;;;;;;0.10;0.10;;;10.10;99.90;;;;;;4987019;28;20023;-73
2023/03/10 12:25:49;;;;;;;0.10;0.10;;;10.00;99.90;;;;;;4986594;28;20053;-76
2023/03/10 12:28:19;;;;;;;0.20;0.10;;;10.10;99.90;;;;;;4985743;28;20109;-74
2023/03/10 12:31:00;;;;;;;6.28;0.52;;;10.00;99.90;;;;;;4985329;28;20479;-71
2023/03/10 12:33:44;;;;;;;0.55;0.20;;;10.10;99.90;;;;;;4987650;28;20058;-74
2023/03/10 12:36:41;;;;;;;0.28;0.22;;;10.00;99.90;;;;;;4984777;28;20549;-75
2023/03/10 12:39:26;;;;;;;0.88;0.40;;;10.00;99.90;;;;;;4997689;28;20084;-76
2023/03/10 12:42:04;;;;;;;0.55;0.25;;;10.00;99.90;;;;;;4983104;28;20035;-74
2023/03/10 12:45:05;;;;;;;0.55;0.32;;;10.00;99.90;;;;;;4987962;28;20077;-72
2023/03/10 12:48:02;;;;;;;0.20;0.10;;;9.90;99.90;;;;;;4990541;28;20034;-72
2023/03/10 12:50:42;;;;;;;0.00;0.00;;;9.90;99.90;;;;;;4985721;28;20196;-71
2023/03/10 12:53:10;;;;;;;0.65;0.10;;;9.80;99.90;;;;;;4980036;28;20049;-72
2023/03/10 12:55:40;;;;;;;1.38;0.22;;;9.90;99.90;;;;;;4992442;28;20062;-71
2023/03/10 12:58:22;;;;;;;0.25;0.10;;;9.80;99.90;;;;;;4964424;28;20031;-71
2023/03/10 13:01:05;;;;;;;0.43;0.20;;;9.80;99.90;;;;;;5000212;28;20027;-70
2023/03/10 13:03:52;;;;;;;6.88;0.47;;;9.80;99.90;;;;;;4974837;28;20023;-71
2023/03/10 13:06:37;;;;;;;1.40;0.30;;;9.90;99.90;;;;;;4984358;28;20130;-71
2023/03/10 13:09:15;;;;;;;0.00;0.00;;;9.90;99.90;;;;;;4990409;28;20745;-71